createdAt,value
2023-04-11T00:00:33.892Z,0.00
2023-04-11T00:05:17.447Z,0.00
2023-04-11T00:10:23.859Z,0.00
2023-04-11T00:15:29.219Z,0.00
2023-04-11T00:20:19.603Z,0.00
2023-04-11T00:25:24.343Z,0.00
2023-04-11T00:30:30.594Z,0.00
2023-04-11T00:35:19.596Z,0.00
2023-04-11T00:40:26.179Z,0.00
2023-04-11T00:45:31.781Z,0.00
2023-04-11T00:50:20.712Z,0.00
2023-04-11T00:55:26.756Z,0.00
2023-04-11T01:00:33.184Z,0.00
2023-04-11T01:05:21.328Z,0.00
2023-04-11T01:10:27.257Z,0.00
2023-04-11T01:15:16.425Z,0.00
2023-04-11T01:20:23.638Z,0.00
2023-04-11T01:25:28.453Z,0.00
2023-04-11T01:30:17.467Z,0.00
2023-04-11T01:35:23.676Z,0.00
2023-04-11T01:40:29.440Z,0.00
2023-04-11T01:45:18.245Z,0.00
2023-04-11T01:50:24.445Z,0.00
2023-04-11T01:55:30.391Z,0.00
2023-04-11T02:00:23.234Z,0.00
2023-04-11T02:05:25.944Z,0.00
2023-04-11T02:10:31.843Z,0.00
2023-04-11T02:15:20.923Z,0.00
2023-04-11T02:20:27.121Z,0.00
2023-04-11T02:25:33.015Z,0.00
2023-04-11T02:30:22.120Z,0.00
2023-04-11T02:35:28.228Z,0.00
2023-04-11T02:40:17.628Z,0.00
2023-04-11T02:45:22.782Z,0.00
2023-04-11T02:50:29.108Z,0.00
2023-04-11T02:55:17.841Z,0.00
2023-04-11T03:00:25.218Z,0.00
2023-04-11T03:05:29.396Z,0.00
2023-04-11T03:10:18.345Z,0.00
2023-04-11T03:15:24.531Z,0.00
2023-04-11T03:20:30.750Z,0.00
2023-04-11T03:25:19.664Z,0.00
2023-04-11T03:30:25.811Z,0.00
2023-04-11T03:35:31.733Z,0.00
2023-04-11T03:40:22.272Z,0.00
2023-04-11T03:45:27.188Z,0.00
2023-04-11T03:50:33.741Z,0.00
2023-04-11T03:55:22.451Z,0.00
2023-04-11T04:00:32.409Z,0.00
2023-04-11T04:05:16.712Z,0.00
2023-04-11T04:10:22.620Z,0.00
2023-04-11T04:15:28.798Z,0.00
2023-04-11T04:20:19.238Z,0.00
2023-04-11T04:25:25.591Z,0.00
2023-04-11T04:30:31.681Z,0.00
2023-04-11T04:35:19.010Z,0.00
2023-04-11T04:40:25.052Z,0.06
2023-04-11T04:45:30.783Z,0.21
2023-04-11T04:50:19.662Z,0.22
2023-04-11T04:55:25.955Z,0.54
2023-04-11T05:00:32.333Z,1.78
2023-04-11T05:05:20.303Z,1.13
2023-04-11T05:10:26.398Z,2.12
2023-04-11T05:15:32.424Z,6.15
2023-04-11T05:20:22.379Z,8.24
2023-04-11T05:25:27.545Z,11.51
2023-04-11T05:30:16.431Z,10.57
2023-04-11T05:35:22.649Z,16.79
2023-04-11T05:40:29.201Z,24.74
2023-04-11T05:45:18.252Z,57.84
2023-04-11T05:50:24.261Z,64.05
2023-04-11T05:55:30.197Z,47.50
2023-04-11T06:00:22.340Z,33.67
2023-04-11T06:05:24.738Z,26.17
2023-04-11T06:10:30.886Z,29.69
2023-04-11T06:15:20.718Z,28.99
2023-04-11T06:20:25.904Z,17.58
2023-04-11T06:25:31.952Z,12.63
2023-04-11T06:30:20.839Z,59.73
2023-04-11T06:35:27.053Z,62.83
2023-04-11T06:40:32.621Z,65.73
2023-04-11T06:45:21.850Z,57.29
2023-04-11T06:50:27.648Z,85.71
2023-04-11T06:55:16.581Z,117.40
2023-04-11T07:00:24.417Z,126.13
2023-04-11T07:05:29.150Z,143.30
2023-04-11T07:10:18.046Z,223.06
2023-04-11T07:15:24.270Z,128.04
2023-04-11T07:20:30.138Z,111.67
2023-04-11T07:25:19.265Z,116.82
2023-04-11T07:30:25.392Z,96.77
2023-04-11T07:35:31.502Z,61.39
2023-04-11T07:40:20.761Z,78.81
2023-04-11T07:45:25.880Z,95.01
2023-04-11T07:50:32.239Z,109.24
2023-04-11T07:55:21.148Z,126.37
2023-04-11T08:00:30.770Z,133.64
2023-04-11T08:05:32.482Z,165.80
2023-04-11T08:10:21.463Z,189.73
2023-04-11T08:15:27.511Z,160.76
2023-04-11T08:20:16.478Z,147.13
2023-04-11T08:25:22.469Z,131.81
2023-04-11T08:30:28.784Z,194.53
2023-04-11T08:35:17.734Z,230.88
2023-04-11T08:40:26.499Z,244.45
2023-04-11T08:45:29.373Z,268.32
2023-04-11T08:50:18.432Z,396.76
2023-04-11T08:55:24.553Z,586.38
2023-04-11T09:00:30.685Z,723.16
2023-04-11T09:05:19.882Z,752.18
2023-04-11T09:10:25.946Z,765.98
2023-04-11T09:15:31.980Z,349.00
2023-04-11T09:20:22.047Z,435.72
2023-04-11T09:25:28.003Z,282.54
2023-04-11T09:30:32.944Z,545.90
2023-04-11T09:35:22.058Z,456.75
2023-04-11T09:40:27.908Z,436.15
2023-04-11T09:45:16.851Z,284.91
2023-04-11T09:50:22.987Z,169.72
2023-04-11T09:55:28.975Z,248.01
2023-04-11T10:00:22.990Z,505.63
2023-04-11T10:05:23.460Z,596.04
2023-04-11T10:10:29.739Z,760.22
2023-04-11T10:15:18.494Z,614.21
2023-04-11T10:20:24.780Z,569.20
2023-04-11T10:25:30.628Z,777.76
2023-04-11T10:30:19.914Z,772.36
2023-04-11T10:35:27.394Z,751.62
2023-04-11T10:40:32.293Z,833.49
2023-04-11T10:45:21.310Z,722.54
2023-04-11T10:50:27.621Z,275.83
2023-04-11T10:55:33.316Z,784.47
2023-04-11T11:00:23.783Z,798.68
2023-04-11T11:05:27.962Z,678.40
2023-04-11T11:10:17.022Z,755.57
2023-04-11T11:15:23.083Z,573.01
2023-04-11T11:20:29.115Z,380.53
2023-04-11T11:25:18.025Z,191.27
2023-04-11T11:30:24.490Z,192.39
2023-04-11T11:35:30.316Z,456.82
2023-04-11T11:40:18.681Z,677.20
2023-04-11T11:45:30.836Z,739.23
2023-04-11T11:50:31.014Z,613.43
2023-04-11T11:55:19.967Z,567.93
2023-04-11T12:00:29.898Z,675.83
2023-04-11T12:05:32.106Z,617.21
2023-04-11T12:10:21.460Z,560.89
2023-04-11T12:15:27.334Z,508.96
2023-04-11T12:20:33.361Z,281.09
2023-04-11T12:25:22.382Z,493.52
2023-04-11T12:30:30.067Z,190.77
2023-04-11T12:35:17.458Z,129.93
2023-04-11T12:40:24.748Z,54.53
2023-04-11T12:45:29.338Z,60.05
2023-04-11T12:50:18.281Z,836.02
2023-04-11T12:55:24.324Z,617.06
2023-04-11T13:00:32.808Z,497.91
2023-04-11T13:05:19.205Z,135.87
2023-04-11T13:10:25.309Z,50.46
2023-04-11T13:15:32.328Z,406.90
2023-04-11T13:20:21.973Z,561.80
2023-04-11T13:25:26.485Z,146.08
2023-04-11T13:30:32.467Z,96.89
2023-04-11T13:35:22.260Z,124.15
2023-04-11T13:40:29.270Z,142.48
2023-04-11T13:45:34.525Z,138.62
2023-04-11T13:50:22.222Z,226.24
2023-04-11T13:55:28.526Z,357.76
2023-04-11T14:00:20.694Z,476.53
2023-04-11T14:05:24.209Z,567.98
2023-04-11T14:10:28.914Z,346.05
2023-04-11T14:15:19.951Z,411.62
2023-04-11T14:20:26.207Z,337.10
2023-04-11T14:25:30.212Z,488.97
2023-04-11T14:30:19.310Z,361.65
2023-04-11T14:35:25.063Z,151.28
2023-04-11T14:40:32.145Z,91.79
2023-04-11T14:45:19.274Z,26.64
2023-04-11T14:50:26.996Z,30.89
2023-04-11T14:55:31.464Z,31.96
2023-04-11T15:00:22.358Z,47.78
2023-04-11T15:05:26.887Z,68.24
2023-04-11T15:10:33.066Z,467.09
2023-04-11T15:15:21.998Z,379.58
2023-04-11T15:20:29.439Z,318.77
2023-04-11T15:25:17.229Z,293.63
2023-04-11T15:30:23.048Z,222.45
2023-04-11T15:35:29.139Z,237.20
2023-04-11T15:40:18.257Z,206.10
2023-04-11T15:45:23.865Z,197.02
2023-04-11T15:50:30.262Z,147.94
2023-04-11T15:55:18.919Z,88.44
2023-04-11T16:00:30.258Z,68.67
2023-04-11T16:05:31.337Z,64.27
2023-04-11T16:10:20.259Z,73.23
2023-04-11T16:15:26.336Z,68.72
2023-04-11T16:20:32.359Z,76.39
2023-04-11T16:25:21.785Z,71.64
2023-04-11T16:30:27.336Z,74.98
2023-04-11T16:35:35.162Z,90.99
2023-04-11T16:40:23.738Z,108.43
2023-04-11T16:45:28.283Z,82.49
2023-04-11T16:50:17.254Z,52.93
2023-04-11T16:55:23.423Z,38.02
2023-04-11T17:00:31.397Z,44.39
2023-04-11T17:05:18.702Z,42.42
2023-04-11T17:10:24.882Z,35.84
2023-04-11T17:15:30.807Z,35.05
2023-04-11T17:20:21.343Z,33.10
2023-04-11T17:25:26.034Z,29.09
2023-04-11T17:30:32.265Z,22.57
2023-04-11T17:35:21.163Z,17.62
2023-04-11T17:40:26.654Z,14.01
2023-04-11T17:45:32.667Z,10.52
2023-04-11T17:50:21.614Z,7.11
2023-04-11T17:55:27.797Z,4.47
2023-04-11T18:00:20.636Z,2.25
2023-04-11T18:05:24.877Z,0.56
2023-04-11T18:10:29.287Z,0.02
2023-04-11T18:15:18.262Z,0.00
2023-04-11T18:20:25.387Z,0.00
2023-04-11T18:25:30.421Z,0.00
2023-04-11T18:30:19.463Z,0.00
2023-04-11T18:35:25.525Z,0.00
2023-04-11T18:40:31.372Z,0.00
2023-04-11T18:45:20.025Z,0.00
2023-04-11T18:50:26.107Z,0.00
2023-04-11T18:55:32.398Z,0.00
2023-04-11T19:00:22.520Z,0.00
2023-04-11T19:05:27.987Z,0.00
2023-04-11T19:10:33.243Z,0.00
2023-04-11T19:15:22.117Z,0.00
2023-04-11T19:20:28.198Z,0.00
2023-04-11T19:25:17.226Z,0.00
2023-04-11T19:30:24.265Z,0.00
2023-04-11T19:35:29.342Z,0.00
2023-04-11T19:40:19.268Z,0.00
2023-04-11T19:45:24.398Z,0.00
2023-04-11T19:50:30.454Z,0.00
2023-04-11T19:55:19.625Z,0.00
2023-04-11T20:00:28.745Z,0.00
2023-04-11T20:05:31.912Z,0.00
2023-04-11T20:10:20.783Z,0.00
2023-04-11T20:15:26.976Z,0.00
2023-04-11T20:20:32.911Z,0.00
2023-04-11T20:25:22.026Z,0.00
2023-04-11T20:30:28.111Z,0.00
2023-04-11T20:35:17.164Z,0.00
2023-04-11T20:40:23.875Z,0.00
2023-04-11T20:45:28.843Z,0.00
2023-04-11T20:50:17.861Z,0.00
2023-04-11T20:55:23.968Z,0.00
2023-04-11T21:00:30.939Z,0.00
2023-04-11T21:05:18.385Z,0.00
2023-04-11T21:10:24.443Z,0.00
2023-04-11T21:15:30.463Z,0.00
2023-04-11T21:20:19.656Z,0.00
2023-04-11T21:25:25.558Z,0.00
2023-04-11T21:30:31.664Z,0.00
2023-04-11T21:35:20.660Z,0.00
2023-04-11T21:40:26.196Z,0.00
2023-04-11T21:45:32.299Z,0.00
2023-04-11T21:50:21.257Z,0.00
2023-04-11T21:55:27.414Z,0.00
2023-04-11T22:00:22.740Z,0.00
2023-04-11T22:05:23.301Z,0.00
2023-04-11T22:10:41.212Z,0.00
2023-04-11T22:15:17.853Z,0.00
2023-04-11T22:20:25.369Z,0.00
2023-04-11T22:25:30.049Z,0.00
2023-04-11T22:30:19.043Z,0.00
2023-04-11T22:35:25.312Z,0.00
2023-04-11T22:40:33.334Z,0.00
2023-04-11T22:45:19.798Z,0.00
2023-04-11T22:50:25.886Z,0.00
2023-04-11T22:55:31.908Z,0.00
2023-04-11T23:00:21.264Z,0.00
2023-04-11T23:05:26.261Z,0.00
2023-04-11T23:10:32.669Z,0.00
2023-04-11T23:15:21.498Z,0.00
2023-04-11T23:20:27.536Z,0.00
2023-04-11T23:25:16.542Z,0.00
2023-04-11T23:30:22.574Z,0.00
2023-04-11T23:35:28.599Z,0.00
2023-04-11T23:40:18.198Z,0.00
2023-04-11T23:45:24.193Z,0.00
2023-04-11T23:50:30.266Z,0.00
2023-04-11T23:55:19.362Z,0.00
